Terminal Aerodrome Forecast
Issued by NWS

Home | Current Version | Previous Version | Text Only | Print | Product List | Glossary Off
Versions: 1 2 3 4 5 6 7 8 9 10 11 12 13 14 15 16

000
FTUS43 KOAX 231122
TAFCDR
TAF
KCDR 231122Z 2312/2412 25008KT P6SM SKC
     FM231500 28011KT P6SM FEW250
     FM231900 27012G18KT P6SM SCT250
     FM240000 21007KT P6SM BKN250=

USA.gov is the U.S. government's official web portal to all federal, state and local government web resources and services.